• Join FlightAware (Why Join?)
  • Login
  • US Flag 
04:34PM EDT


 

Airport Tracker/Info


-or-


 

Live Flight TrackerFlight Track Log ✈ CTL17 ✈ 19-Jun-2013 ✈ KPTK - KMBS

Flight Track Log - Related Links

Times and Time Zones

All times are in EDT time to prevent confusion due to time zone crossing. See the CTL17 flight status page for this flight to view local times or setup timezone preferences in your user account.

Time Position Orientation Groundspeed Altitude Reporting Facility
EDT Latitude Longitude Course Direction KTS MPH feet Rate Location/Type
03:53PM 42.6700 -83.3817 North 129 148 1,700  Level Cleveland Center
03:55PM 42.7181 -83.3781 North 151 174 2,800 840 Climbing Cleveland Center
03:57PM 42.7845 -83.3832 North  Level FlightAware Approximate
04:04PM 43.0014 -83.4782 321° Northwest  Level FlightAware Approximate
04:05PM 43.0288 -83.5084 321° Northwest  Level FlightAware Approximate
04:06PM 43.0561 -83.5386 321° Northwest  Level FlightAware Approximate
04:07PM 43.0835 -83.5689 321° Northwest  Level FlightAware Approximate
04:08PM 43.1109 -83.5992 321° Northwest  Level FlightAware Approximate
04:09PM 43.1382 -83.6295 321° Northwest  Level FlightAware Approximate
04:10PM 43.1656 -83.6598 321° Northwest  Level FlightAware Approximate
04:11PM 43.1929 -83.6902 321° Northwest  Level FlightAware Approximate
04:12PM 43.2201 -83.7208 318° Northwest  Level FlightAware Approximate
04:13PM 43.2464 -83.7529 318° Northwest  Level FlightAware Approximate
04:14PM 43.2727 -83.7850 318° Northwest  Level FlightAware Approximate
04:15PM 43.2990 -83.8171 318° Northwest  Level FlightAware Approximate
04:16PM 43.3252 -83.8492 318° Northwest  Level FlightAware Approximate
04:17PM 43.3515 -83.8814 318° Northwest  Level FlightAware Approximate
04:18PM 43.3787 -83.9120 324° Northwest  Level FlightAware Approximate
04:19PM 43.4072 -83.9404 324° Northwest  Level FlightAware Approximate
04:20PM 43.4357 -83.9689 324° Northwest  Level FlightAware Approximate
04:21PM 43.4641 -83.9974 324° Northwest  Level FlightAware Approximate
04:22PM 43.4926 -84.0259 324° Northwest  Level FlightAware Approximate
04:23PM 43.5148 -84.0628 305° West  Level FlightAware Approximate
04:24PM 43.5167 -84.0667 305° West  Level FlightAware Approximate